sensor_id;sensor_type;location;lat;lon;timestamp;P1;durP1;ratioP1;P2;durP2;ratioP2
7753;SDS011;3921;42.266;23.122;2022-08-23T04:35:22;18.27;;;14.47;;
7753;SDS011;3921;42.266;23.122;2022-08-23T04:37:50;20.23;;;15.50;;
7753;SDS011;3921;42.266;23.122;2022-08-23T04:40:17;22.40;;;14.13;;
7753;SDS011;3921;42.266;23.122;2022-08-23T04:45:53;18.30;;;14.47;;
7753;SDS011;3921;42.266;23.122;2022-08-23T04:48:24;21.60;;;14.43;;
7753;SDS011;3921;42.266;23.122;2022-08-23T04:51:11;22.55;;;14.55;;
7753;SDS011;3921;42.266;23.122;2022-08-23T04:56:14;20.30;;;14.50;;
7753;SDS011;3921;42.266;23.122;2022-08-23T04:58:41;19.87;;;14.77;;
7753;SDS011;3921;42.266;23.122;2022-08-23T05:01:26;16.57;;;13.43;;
7753;SDS011;3921;42.266;23.122;2022-08-23T05:12:06;13.87;;;10.87;;
7753;SDS011;3921;42.266;23.122;2022-08-23T05:37:39;8.50;;;7.50;;
7753;SDS011;3921;42.266;23.122;2022-08-23T05:40:07;9.00;;;6.60;;
7753;SDS011;3921;42.266;23.122;2022-08-23T06:06:24;11.47;;;9.73;;
7753;SDS011;3921;42.266;23.122;2022-08-23T06:08:59;9.80;;;8.67;;
7753;SDS011;3921;42.266;23.122;2022-08-23T06:11:46;11.67;;;10.40;;
7753;SDS011;3921;42.266;23.122;2022-08-23T06:14:27;11.17;;;9.67;;
7753;SDS011;3921;42.266;23.122;2022-08-23T06:17:12;13.10;;;10.80;;
7753;SDS011;3921;42.266;23.122;2022-08-23T06:19:42;11.47;;;10.27;;
7753;SDS011;3921;42.266;23.122;2022-08-23T08:22:21;23.67;;;16.37;;
7753;SDS011;3921;42.266;23.122;2022-08-23T08:24:49;24.80;;;17.30;;
7753;SDS011;3921;42.266;23.122;2022-08-23T17:51:36;10.30;;;7.50;;
7753;SDS011;3921;42.266;23.122;2022-08-23T17:54:10;12.23;;;8.17;;
7753;SDS011;3921;42.266;23.122;2022-08-23T17:57:03;10.00;;;7.70;;
7753;SDS011;3921;42.266;23.122;2022-08-23T18:04:54;11.53;;;7.40;;
7753;SDS011;3921;42.266;23.122;2022-08-23T18:07:24;9.37;;;8.00;;
7753;SDS011;3921;42.266;23.122;2022-08-23T18:09:51;12.80;;;7.87;;
7753;SDS011;3921;42.266;23.122;2022-08-23T18:21:40;8.33;;;7.43;;
7753;SDS011;3921;42.266;23.122;2022-08-23T19:00:32;8.20;;;6.37;;
7753;SDS011;3921;42.266;23.122;2022-08-23T19:03:19;8.17;;;6.43;;
7753;SDS011;3921;42.266;23.122;2022-08-23T19:05:48;7.67;;;6.00;;
7753;SDS011;3921;42.266;23.122;2022-08-23T19:08:16;10.53;;;6.70;;
7753;SDS011;3921;42.266;23.122;2022-08-23T19:10:44;8.53;;;6.70;;
7753;SDS011;3921;42.266;23.122;2022-08-23T19:13:16;8.13;;;7.07;;
7753;SDS011;3921;42.266;23.122;2022-08-23T19:15:47;9.83;;;7.80;;
7753;SDS011;3921;42.266;23.122;2022-08-23T19:21:13;8.80;;;7.90;;
7753;SDS011;3921;42.266;23.122;2022-08-23T19:24:20;9.03;;;7.37;;
7753;SDS011;3921;42.266;23.122;2022-08-23T19:29:40;10.97;;;7.60;;
7753;SDS011;3921;42.266;23.122;2022-08-23T19:38:16;9.37;;;7.37;;
7753;SDS011;3921;42.266;23.122;2022-08-23T19:43:34;8.03;;;7.23;;
7753;SDS011;3921;42.266;23.122;2022-08-23T19:46:04;10.37;;;7.63;;
7753;SDS011;3921;42.266;23.122;2022-08-23T19:52:12;9.83;;;7.83;;
7753;SDS011;3921;42.266;23.122;2022-08-23T19:54:39;8.17;;;7.17;;
7753;SDS011;3921;42.266;23.122;2022-08-23T19:57:07;12.90;;;7.87;;
7753;SDS011;3921;42.266;23.122;2022-08-23T19:59:36;10.83;;;7.77;;
7753;SDS011;3921;42.266;23.122;2022-08-23T20:02:04;10.30;;;7.40;;
7753;SDS011;3921;42.266;23.122;2022-08-23T20:04:34;12.10;;;7.87;;
7753;SDS011;3921;42.266;23.122;2022-08-23T20:07:02;11.63;;;7.50;;
7753;SDS011;3921;42.266;23.122;2022-08-23T20:09:32;14.27;;;8.10;;
7753;SDS011;3921;42.266;23.122;2022-08-23T20:11:59;10.70;;;8.30;;
7753;SDS011;3921;42.266;23.122;2022-08-23T20:14:27;12.33;;;8.50;;
7753;SDS011;3921;42.266;23.122;2022-08-23T20:16:57;11.23;;;8.50;;
7753;SDS011;3921;42.266;23.122;2022-08-23T20:19:28;8.70;;;7.20;;
7753;SDS011;3921;42.266;23.122;2022-08-23T20:21:56;12.33;;;7.67;;
7753;SDS011;3921;42.266;23.122;2022-08-23T20:24:46;13.23;;;7.80;;
7753;SDS011;3921;42.266;23.122;2022-08-23T20:30:09;13.30;;;7.90;;
7753;SDS011;3921;42.266;23.122;2022-08-23T20:33:31;14.80;;;8.20;;
7753;SDS011;3921;42.266;23.122;2022-08-23T20:36:24;9.53;;;7.97;;
7753;SDS011;3921;42.266;23.122;2022-08-23T20:52:55;7.77;;;6.97;;
7753;SDS011;3921;42.266;23.122;2022-08-23T20:55:23;10.03;;;7.67;;
7753;SDS011;3921;42.266;23.122;2022-08-23T20:57:59;9.80;;;7.47;;
7753;SDS011;3921;42.266;23.122;2022-08-23T22:55:04;10.27;;;5.20;;
7753;SDS011;3921;42.266;23.122;2022-08-23T22:58:00;10.10;;;5.60;;
7753;SDS011;3921;42.266;23.122;2022-08-23T23:52:25;10.50;;;7.00;;
7753;SDS011;3921;42.266;23.122;2022-08-23T23:54:58;8.07;;;6.80;;
7753;SDS011;3921;42.266;23.122;2022-08-23T23:57:28;10.40;;;6.73;;
7753;SDS011;3921;42.266;23.122;2022-08-23T23:59:57;13.00;;;6.97;;
